createdAt,value
2018-10-05T00:00:41.860Z,0.00
2018-10-05T00:01:41.852Z,0.00
2018-10-05T00:02:41.847Z,0.00
2018-10-05T00:03:41.841Z,0.00
2018-10-05T00:04:41.837Z,0.00
2018-10-05T00:05:41.821Z,0.00
2018-10-05T00:06:41.825Z,0.00
2018-10-05T00:07:41.811Z,0.00
2018-10-05T00:08:41.805Z,0.00
2018-10-05T00:09:41.790Z,0.00
2018-10-05T00:10:41.785Z,0.00
2018-10-05T00:11:41.775Z,0.00
2018-10-05T00:12:41.837Z,0.00
2018-10-05T00:13:41.767Z,0.00
2018-10-05T00:14:41.767Z,0.00
2018-10-05T00:15:41.749Z,0.00
2018-10-05T00:16:41.751Z,0.00
2018-10-05T00:17:41.744Z,0.00
2018-10-05T00:18:41.737Z,0.00
2018-10-05T00:19:41.722Z,0.00
2018-10-05T00:20:41.711Z,0.00
2018-10-05T00:21:41.709Z,0.00
2018-10-05T00:22:41.699Z,0.00
2018-10-05T00:23:41.707Z,0.00
2018-10-05T00:24:41.687Z,0.00
2018-10-05T00:25:41.677Z,0.00
2018-10-05T00:26:41.664Z,0.00
2018-10-05T00:27:41.660Z,0.00
2018-10-05T00:28:41.659Z,0.00
2018-10-05T00:29:41.655Z,0.00
2018-10-05T00:30:41.642Z,0.00
2018-10-05T00:31:41.638Z,0.00
2018-10-05T00:32:41.634Z,0.00
2018-10-05T00:33:41.623Z,0.00
2018-10-05T00:34:41.617Z,0.00
2018-10-05T00:35:41.597Z,0.00
2018-10-05T00:36:41.597Z,0.00
2018-10-05T00:37:41.589Z,0.00
2018-10-05T00:38:41.571Z,0.00
2018-10-05T00:39:41.585Z,0.00
2018-10-05T00:40:41.571Z,0.00
2018-10-05T00:41:41.552Z,0.00
2018-10-05T00:42:41.542Z,0.00
2018-10-05T00:43:41.541Z,0.00
2018-10-05T00:44:41.543Z,0.00
2018-10-05T00:45:41.538Z,0.00
2018-10-05T00:46:41.523Z,0.00
2018-10-05T00:47:41.519Z,0.00
2018-10-05T00:48:41.495Z,0.00
2018-10-05T00:49:41.490Z,0.00
2018-10-05T00:50:41.493Z,0.00
2018-10-05T00:51:41.494Z,0.00
2018-10-05T00:52:41.470Z,0.00
2018-10-05T00:53:41.469Z,0.00
2018-10-05T00:54:41.461Z,0.00
2018-10-05T00:55:41.450Z,0.00
2018-10-05T00:56:41.447Z,0.00
2018-10-05T00:57:41.428Z,0.00
2018-10-05T00:58:41.442Z,0.00
2018-10-05T00:59:41.412Z,0.00
2018-10-05T01:00:41.408Z,0.00
2018-10-05T01:01:41.462Z,0.00
2018-10-05T01:02:41.406Z,0.00
2018-10-05T01:03:41.390Z,0.00
2018-10-05T01:04:41.381Z,0.00
2018-10-05T01:05:41.381Z,0.00
2018-10-05T01:06:41.372Z,0.00
2018-10-05T01:07:41.360Z,0.00
2018-10-05T01:08:41.366Z,0.00
2018-10-05T01:09:41.342Z,0.00
2018-10-05T01:10:41.338Z,0.00
2018-10-05T01:11:41.332Z,0.00
2018-10-05T01:12:41.337Z,0.00
2018-10-05T01:13:41.311Z,0.00
2018-10-05T01:14:41.309Z,0.00
2018-10-05T01:15:41.296Z,0.00
2018-10-05T01:16:41.285Z,0.00
2018-10-05T01:17:41.282Z,0.00
2018-10-05T01:18:41.273Z,0.00
2018-10-05T01:19:41.265Z,0.00
2018-10-05T01:20:41.258Z,0.00
2018-10-05T01:21:41.247Z,0.00
2018-10-05T01:22:41.256Z,0.00
2018-10-05T01:23:41.228Z,0.00
2018-10-05T01:24:41.275Z,0.00
2018-10-05T01:25:41.217Z,0.00
2018-10-05T01:26:41.213Z,0.00
2018-10-05T01:27:41.222Z,0.00
2018-10-05T01:28:41.203Z,0.00
2018-10-05T01:29:41.194Z,0.00
2018-10-05T01:30:41.186Z,0.00
2018-10-05T01:31:41.178Z,0.00
2018-10-05T01:32:41.177Z,0.00
2018-10-05T01:33:41.164Z,0.00
2018-10-05T01:34:41.165Z,0.00
2018-10-05T01:35:41.143Z,0.00
2018-10-05T01:36:41.133Z,0.00
2018-10-05T01:37:41.133Z,0.00
2018-10-05T01:38:41.179Z,0.00
2018-10-05T01:39:41.109Z,0.00
2018-10-05T01:40:41.106Z,0.00
2018-10-05T01:41:41.102Z,0.00
2018-10-05T01:42:41.093Z,0.00
2018-10-05T01:43:41.092Z,0.00
2018-10-05T01:44:41.093Z,0.00
2018-10-05T01:45:41.097Z,0.00
2018-10-05T01:46:41.073Z,0.00
2018-10-05T01:47:41.054Z,0.00
2018-10-05T01:48:41.045Z,0.00
2018-10-05T01:49:41.039Z,0.00
2018-10-05T01:50:41.028Z,0.00
2018-10-05T01:51:41.022Z,0.00
2018-10-05T01:52:41.020Z,0.00
2018-10-05T01:53:41.007Z,0.00
2018-10-05T01:54:41.001Z,0.00
2018-10-05T01:55:40.987Z,0.00
2018-10-05T01:56:40.979Z,0.00
2018-10-05T01:57:40.978Z,0.00
2018-10-05T01:58:40.970Z,0.00
2018-10-05T01:59:40.956Z,0.00
2018-10-05T02:00:40.957Z,0.00
2018-10-05T02:01:40.947Z,0.00
2018-10-05T02:02:40.988Z,0.00
2018-10-05T02:03:40.927Z,0.00
2018-10-05T02:04:40.918Z,0.00
2018-10-05T02:05:40.911Z,0.00
2018-10-05T02:06:40.901Z,0.00
2018-10-05T02:07:40.898Z,0.00
2018-10-05T02:08:40.893Z,0.00
2018-10-05T02:09:40.892Z,0.00
2018-10-05T02:10:40.883Z,0.00
2018-10-05T02:11:40.875Z,0.00
2018-10-05T02:12:40.859Z,0.00
2018-10-05T02:13:40.862Z,0.00
2018-10-05T02:14:40.842Z,0.00
2018-10-05T02:15:40.834Z,0.00
2018-10-05T02:16:40.828Z,0.00
2018-10-05T02:17:40.820Z,0.00
2018-10-05T02:18:40.818Z,0.00
2018-10-05T02:19:40.808Z,0.00
2018-10-05T02:20:40.811Z,0.00
2018-10-05T02:21:40.801Z,0.00
2018-10-05T02:22:40.787Z,0.00
2018-10-05T02:23:40.779Z,0.00
2018-10-05T02:24:40.769Z,0.00
2018-10-05T02:25:40.759Z,0.00
2018-10-05T02:26:40.752Z,0.00
2018-10-05T02:27:40.805Z,0.00
2018-10-05T02:28:40.744Z,0.00
2018-10-05T02:29:40.728Z,0.00
2018-10-05T02:30:40.723Z,0.00
2018-10-05T02:31:40.737Z,0.00
2018-10-05T02:32:40.708Z,0.00
2018-10-05T02:33:40.701Z,0.00
2018-10-05T02:34:40.692Z,0.00
2018-10-05T02:35:40.689Z,0.00
2018-10-05T02:36:40.693Z,0.00
2018-10-05T02:37:40.668Z,0.00
2018-10-05T02:38:40.664Z,0.00
2018-10-05T02:39:40.662Z,0.00
2018-10-05T02:40:40.648Z,0.00
2018-10-05T02:41:40.700Z,0.00
2018-10-05T02:42:40.635Z,0.00
2018-10-05T02:43:40.638Z,0.00
2018-10-05T02:44:40.629Z,0.00
2018-10-05T02:45:40.614Z,0.00
2018-10-05T02:46:40.597Z,0.00
2018-10-05T02:47:40.600Z,0.00
2018-10-05T02:48:40.584Z,0.00
2018-10-05T02:49:40.574Z,0.00
2018-10-05T02:50:40.572Z,0.00
2018-10-05T02:51:40.562Z,0.00
2018-10-05T02:52:40.562Z,0.00
2018-10-05T02:53:40.549Z,0.00
2018-10-05T02:54:40.548Z,0.00
2018-10-05T02:55:40.530Z,0.00
2018-10-05T02:56:40.525Z,0.00
2018-10-05T02:57:40.520Z,0.00
2018-10-05T02:58:40.521Z,0.00
2018-10-05T02:59:40.499Z,0.00
2018-10-05T03:00:40.499Z,0.00
2018-10-05T03:01:40.483Z,0.00
2018-10-05T03:02:40.479Z,0.00
2018-10-05T03:03:40.469Z,0.00
2018-10-05T03:04:40.468Z,0.00
2018-10-05T03:05:40.452Z,0.00
2018-10-05T03:06:40.455Z,0.00
2018-10-05T03:07:40.440Z,0.00
2018-10-05T03:08:40.439Z,0.00
2018-10-05T03:09:40.428Z,0.00
2018-10-05T03:10:40.414Z,0.00
2018-10-05T03:11:40.415Z,0.00
2018-10-05T03:12:40.401Z,0.00
2018-10-05T03:13:40.394Z,0.00
2018-10-05T03:14:40.384Z,0.00
2018-10-05T03:15:40.379Z,0.00
2018-10-05T03:16:40.378Z,0.00
2018-10-05T03:17:40.364Z,0.00
2018-10-05T03:18:40.365Z,0.00
2018-10-05T03:19:40.352Z,0.00
2018-10-05T03:20:40.358Z,0.00
2018-10-05T03:21:40.334Z,0.00
2018-10-05T03:22:40.327Z,0.00
2018-10-05T03:23:40.323Z,0.00
2018-10-05T03:24:40.320Z,0.00
2018-10-05T03:25:40.300Z,0.00
2018-10-05T03:26:40.300Z,0.00
2018-10-05T03:27:40.289Z,0.00
2018-10-05T03:28:40.284Z,0.00
2018-10-05T03:29:40.271Z,0.00
2018-10-05T03:30:40.275Z,0.00
2018-10-05T03:31:40.258Z,0.00
2018-10-05T03:32:40.254Z,0.00
2018-10-05T03:33:40.250Z,0.00
2018-10-05T03:34:40.245Z,0.00
2018-10-05T03:35:40.225Z,0.00
2018-10-05T03:36:40.225Z,0.00
2018-10-05T03:37:40.219Z,0.00
2018-10-05T03:38:40.214Z,0.00
2018-10-05T03:39:40.193Z,0.00
2018-10-05T03:40:40.199Z,0.00
2018-10-05T03:41:40.182Z,0.00
2018-10-05T03:42:40.179Z,0.00
2018-10-05T03:43:40.176Z,0.00
2018-10-05T03:44:40.155Z,0.00
2018-10-05T03:45:40.148Z,0.00
2018-10-05T03:46:40.149Z,0.00
2018-10-05T03:47:40.153Z,0.00
2018-10-05T03:48:40.133Z,0.00
2018-10-05T03:49:40.170Z,0.00
2018-10-05T03:50:40.116Z,0.00
2018-10-05T03:51:40.103Z,0.00
2018-10-05T03:52:40.098Z,0.00
2018-10-05T03:53:40.099Z,0.00
2018-10-05T03:54:40.080Z,0.00
2018-10-05T03:55:40.081Z,0.00
2018-10-05T03:56:40.068Z,0.00
2018-10-05T03:57:40.059Z,0.00
2018-10-05T03:58:40.058Z,0.00
2018-10-05T03:59:40.045Z,0.00
2018-10-05T04:00:40.034Z,0.00
2018-10-05T04:01:40.029Z,0.00
2018-10-05T04:02:40.023Z,0.00
2018-10-05T04:03:40.015Z,0.00
2018-10-05T04:04:40.010Z,0.00
2018-10-05T04:05:39.998Z,0.00
2018-10-05T04:06:39.984Z,0.00
2018-10-05T04:07:39.987Z,0.00
2018-10-05T04:08:39.977Z,0.00
2018-10-05T04:09:39.971Z,0.00
2018-10-05T04:10:39.959Z,0.00
2018-10-05T04:11:39.957Z,0.00
2018-10-05T04:12:39.952Z,0.00
2018-10-05T04:13:39.945Z,0.00
2018-10-05T04:14:39.952Z,0.00
2018-10-05T04:15:39.925Z,0.00
2018-10-05T04:16:39.915Z,0.00
2018-10-05T04:17:39.905Z,0.00
2018-10-05T04:18:39.905Z,0.00
2018-10-05T04:19:39.894Z,0.00
2018-10-05T04:20:39.885Z,0.00
2018-10-05T04:21:39.873Z,0.00
2018-10-05T04:22:39.873Z,0.00
2018-10-05T04:23:39.869Z,0.00
2018-10-05T04:24:39.863Z,0.00
2018-10-05T04:25:39.851Z,0.00
2018-10-05T04:26:39.860Z,0.00
2018-10-05T04:27:39.828Z,0.00
2018-10-05T04:28:39.826Z,0.00
2018-10-05T04:29:39.829Z,0.00
2018-10-05T04:30:39.813Z,0.00
2018-10-05T04:31:39.799Z,0.00
2018-10-05T04:32:39.790Z,0.00
2018-10-05T04:33:39.784Z,0.00
2018-10-05T04:34:39.773Z,0.00
2018-10-05T04:35:39.850Z,0.00
2018-10-05T04:36:39.762Z,0.00
2018-10-05T04:37:39.749Z,0.00
2018-10-05T04:38:39.743Z,0.00
2018-10-05T04:39:39.739Z,0.00
2018-10-05T04:40:39.734Z,0.00
2018-10-05T04:41:39.720Z,0.00
2018-10-05T04:42:39.723Z,0.00
2018-10-05T04:43:39.710Z,0.00
2018-10-05T04:44:39.706Z,0.00
2018-10-05T04:45:39.693Z,0.00
2018-10-05T04:46:39.680Z,0.00
2018-10-05T04:47:39.685Z,0.00
2018-10-05T04:48:39.678Z,0.00
2018-10-05T04:49:39.818Z,0.00
2018-10-05T04:50:39.660Z,0.00
2018-10-05T04:51:39.647Z,0.00
2018-10-05T04:52:39.637Z,0.00
2018-10-05T04:53:39.635Z,0.00
2018-10-05T04:54:39.626Z,0.00
2018-10-05T04:55:39.615Z,0.00
2018-10-05T04:56:39.637Z,0.00
2018-10-05T04:57:39.607Z,0.00
2018-10-05T04:58:39.598Z,0.00
2018-10-05T04:59:39.590Z,0.00
2018-10-05T05:00:39.578Z,0.00
2018-10-05T05:01:39.567Z,0.00
2018-10-05T05:02:39.580Z,0.00
2018-10-05T05:03:39.640Z,0.00
2018-10-05T05:04:39.554Z,0.00
2018-10-05T05:05:39.538Z,0.00
2018-10-05T05:06:39.531Z,0.00
2018-10-05T05:07:39.530Z,0.00
2018-10-05T05:08:39.522Z,0.00
2018-10-05T05:09:39.511Z,0.00
2018-10-05T05:10:39.503Z,0.00
2018-10-05T05:11:39.496Z,0.00
2018-10-05T05:12:39.486Z,0.00
2018-10-05T05:13:39.484Z,0.00
2018-10-05T05:14:39.472Z,0.00
2018-10-05T05:15:39.463Z,0.00
2018-10-05T05:16:39.457Z,0.00
2018-10-05T05:17:39.449Z,0.00
2018-10-05T05:18:39.441Z,0.00
2018-10-05T05:19:39.442Z,0.00
2018-10-05T05:20:39.421Z,0.00
2018-10-05T05:21:39.421Z,0.00
2018-10-05T05:22:39.415Z,0.00
2018-10-05T05:23:39.394Z,0.00
2018-10-05T05:24:39.395Z,0.00
2018-10-05T05:25:39.382Z,0.00
2018-10-05T05:26:39.376Z,0.00
2018-10-05T05:27:39.376Z,0.00
2018-10-05T05:28:39.376Z,0.00
2018-10-05T05:29:39.351Z,0.00
2018-10-05T05:30:39.341Z,0.00
2018-10-05T05:31:39.342Z,0.00
2018-10-05T05:32:39.332Z,0.00
2018-10-05T05:33:39.387Z,0.00
2018-10-05T05:34:39.320Z,0.00
2018-10-05T05:35:39.306Z,0.00
2018-10-05T05:36:39.307Z,0.00
2018-10-05T05:37:39.306Z,0.00
2018-10-05T05:38:39.282Z,0.00
2018-10-05T05:39:39.282Z,0.00
2018-10-05T05:40:39.270Z,0.00
2018-10-05T05:41:39.256Z,0.00
2018-10-05T05:42:39.256Z,0.00
2018-10-05T05:43:39.240Z,0.00
2018-10-05T05:44:39.241Z,0.00
2018-10-05T05:45:39.230Z,0.00
2018-10-05T05:46:39.230Z,0.00
2018-10-05T05:47:39.212Z,0.00
2018-10-05T05:48:39.225Z,0.00
2018-10-05T05:49:39.201Z,0.00
2018-10-05T05:50:39.200Z,0.00
2018-10-05T05:51:39.186Z,0.00
2018-10-05T05:52:39.172Z,0.00
2018-10-05T05:53:39.170Z,0.00
2018-10-05T05:54:39.164Z,0.00
2018-10-05T05:55:39.166Z,0.00
2018-10-05T05:56:39.143Z,0.00
2018-10-05T05:57:39.141Z,4.00
2018-10-05T05:58:39.137Z,4.00
2018-10-05T05:59:39.132Z,4.00
2018-10-05T06:00:39.116Z,4.00
2018-10-05T06:01:39.115Z,4.00
2018-10-05T06:02:39.097Z,4.00
2018-10-05T06:03:39.087Z,4.00
2018-10-05T06:04:39.083Z,4.00
2018-10-05T06:05:39.082Z,4.00
2018-10-05T06:06:39.082Z,4.00
2018-10-05T06:07:39.075Z,4.00
2018-10-05T06:08:39.062Z,0.00
2018-10-05T06:09:39.051Z,0.00
2018-10-05T06:10:39.047Z,0.00
2018-10-05T06:11:39.036Z,0.00
2018-10-05T06:12:39.031Z,0.00
2018-10-05T06:13:39.021Z,0.00
2018-10-05T06:14:39.011Z,4.00
2018-10-05T06:15:39.003Z,4.00
2018-10-05T06:16:38.993Z,4.00
2018-10-05T06:17:38.994Z,4.00
2018-10-05T06:18:38.977Z,4.00
2018-10-05T06:19:38.979Z,4.00
2018-10-05T06:20:38.977Z,4.00
2018-10-05T06:21:39.068Z,4.00
2018-10-05T06:22:39.010Z,4.00
2018-10-05T06:23:38.933Z,4.00
2018-10-05T06:24:38.948Z,4.00
2018-10-05T06:25:38.922Z,4.00
2018-10-05T06:26:38.925Z,4.00
2018-10-05T06:27:38.929Z,4.00
2018-10-05T06:28:38.906Z,4.00
2018-10-05T06:29:38.890Z,4.00
2018-10-05T06:30:38.957Z,8.00
2018-10-05T06:31:38.878Z,4.00
2018-10-05T06:32:38.893Z,4.00
2018-10-05T06:33:38.861Z,4.00
2018-10-05T06:34:38.860Z,4.00
2018-10-05T06:35:38.870Z,4.00
2018-10-05T06:36:38.860Z,4.00
2018-10-05T06:37:38.834Z,8.00
2018-10-05T06:38:38.828Z,8.00
2018-10-05T06:39:38.822Z,8.00
2018-10-05T06:40:38.809Z,8.00
2018-10-05T06:41:38.802Z,8.00
2018-10-05T06:42:38.896Z,8.00
2018-10-05T06:43:38.807Z,12.00
2018-10-05T06:44:38.788Z,16.00
2018-10-05T06:45:38.768Z,12.00
2018-10-05T06:46:38.773Z,12.00
2018-10-05T06:47:38.761Z,16.00
2018-10-05T06:48:38.753Z,20.00
2018-10-05T06:49:38.746Z,32.00
2018-10-05T06:50:38.738Z,48.00
2018-10-05T06:51:38.737Z,64.00
2018-10-05T06:52:38.728Z,76.00
2018-10-05T06:53:38.707Z,92.00
2018-10-05T06:54:38.702Z,100.00
2018-10-05T06:55:38.705Z,96.00
2018-10-05T06:56:38.690Z,96.00
2018-10-05T06:57:38.677Z,92.00
2018-10-05T06:58:38.676Z,92.00
2018-10-05T06:59:38.672Z,88.00
2018-10-05T07:00:38.654Z,88.00
2018-10-05T07:01:38.716Z,84.00
2018-10-05T07:02:38.638Z,80.00
2018-10-05T07:03:38.633Z,80.00
2018-10-05T07:04:38.629Z,80.00
2018-10-05T07:05:38.625Z,72.00
2018-10-05T07:06:38.614Z,72.00
2018-10-05T07:07:38.626Z,64.00
2018-10-05T07:08:38.612Z,64.00
2018-10-05T07:09:38.584Z,64.00
2018-10-05T07:10:38.589Z,60.00
2018-10-05T07:11:38.573Z,56.00
2018-10-05T07:12:38.570Z,56.00
2018-10-05T07:13:38.564Z,48.00
2018-10-05T07:14:38.550Z,44.00
2018-10-05T07:15:38.565Z,40.00
2018-10-05T07:16:38.531Z,44.00
2018-10-05T07:17:38.531Z,40.00
2018-10-05T07:18:38.524Z,40.00
2018-10-05T07:19:38.513Z,40.00
2018-10-05T07:20:38.500Z,36.00
2018-10-05T07:21:38.500Z,36.00
2018-10-05T07:22:38.570Z,36.00
2018-10-05T07:23:38.496Z,36.00
2018-10-05T07:24:38.481Z,36.00
2018-10-05T07:25:38.468Z,28.00
2018-10-05T07:26:38.466Z,32.00
2018-10-05T07:27:38.453Z,32.00
2018-10-05T07:28:38.486Z,28.00
2018-10-05T07:29:38.444Z,28.00
2018-10-05T07:30:38.438Z,32.00
2018-10-05T07:31:38.429Z,32.00
2018-10-05T07:32:38.409Z,32.00
2018-10-05T07:33:38.415Z,32.00
2018-10-05T07:34:38.413Z,32.00
2018-10-05T07:35:38.393Z,28.00
2018-10-05T07:36:38.388Z,28.00
2018-10-05T07:37:38.374Z,28.00
2018-10-05T07:38:38.372Z,28.00
2018-10-05T07:39:38.365Z,28.00
2018-10-05T07:40:38.354Z,32.00
2018-10-05T07:41:38.355Z,28.00
2018-10-05T07:42:38.346Z,36.00
2018-10-05T07:43:38.337Z,32.00
2018-10-05T07:44:38.331Z,32.00
2018-10-05T07:45:38.312Z,32.00
2018-10-05T07:46:38.303Z,32.00
2018-10-05T07:47:38.299Z,32.00
2018-10-05T07:48:38.293Z,28.00
2018-10-05T07:49:38.284Z,28.00
2018-10-05T07:50:38.287Z,28.00
2018-10-05T07:51:38.308Z,32.00
2018-10-05T07:52:38.273Z,32.00
2018-10-05T07:53:38.253Z,40.00
2018-10-05T07:54:38.263Z,52.00
2018-10-05T07:55:38.237Z,60.00
2018-10-05T07:56:38.234Z,76.00
2018-10-05T07:57:38.318Z,84.00
2018-10-05T07:58:38.216Z,84.00
2018-10-05T07:59:38.248Z,64.00
2018-10-05T08:00:38.209Z,68.00
2018-10-05T08:01:38.193Z,104.00
2018-10-05T08:02:38.205Z,156.00
2018-10-05T08:03:38.183Z,188.00
2018-10-05T08:04:38.183Z,196.00
2018-10-05T08:05:38.171Z,208.00
2018-10-05T08:06:38.159Z,208.00
2018-10-05T08:07:38.154Z,188.00
2018-10-05T08:08:38.144Z,172.00
2018-10-05T08:09:38.225Z,160.00
2018-10-05T08:10:38.134Z,152.00
2018-10-05T08:11:38.120Z,144.00
2018-10-05T08:12:38.135Z,132.00
2018-10-05T08:13:38.113Z,128.00
2018-10-05T08:14:38.119Z,132.00
2018-10-05T08:15:38.103Z,132.00
2018-10-05T08:16:38.097Z,132.00
2018-10-05T08:17:38.072Z,136.00
2018-10-05T08:18:38.065Z,140.00
2018-10-05T08:19:38.069Z,144.00
2018-10-05T08:20:38.064Z,144.00
2018-10-05T08:21:38.063Z,148.00
2018-10-05T08:22:38.054Z,148.00
2018-10-05T08:23:38.034Z,148.00
2018-10-05T08:24:38.038Z,152.00
2018-10-05T08:25:38.026Z,152.00
2018-10-05T08:26:38.018Z,152.00
2018-10-05T08:27:38.014Z,152.00
2018-10-05T08:28:37.994Z,152.00
2018-10-05T08:29:38.001Z,152.00
2018-10-05T08:30:37.993Z,156.00
2018-10-05T08:31:37.980Z,152.00
2018-10-05T08:32:37.977Z,156.00
2018-10-05T08:33:37.969Z,152.00
2018-10-05T08:34:38.099Z,152.00
2018-10-05T08:35:37.950Z,156.00
2018-10-05T08:36:37.952Z,152.00
2018-10-05T08:37:37.937Z,156.00
2018-10-05T08:38:37.936Z,156.00
2018-10-05T08:39:37.971Z,156.00
2018-10-05T08:40:37.919Z,156.00
2018-10-05T08:41:37.907Z,160.00
2018-10-05T08:42:37.904Z,160.00
2018-10-05T08:43:37.900Z,160.00
2018-10-05T08:44:37.885Z,160.00
2018-10-05T08:45:37.897Z,160.00
2018-10-05T08:46:37.873Z,156.00
2018-10-05T08:47:37.865Z,156.00
2018-10-05T08:48:37.878Z,156.00
2018-10-05T08:49:37.851Z,160.00
2018-10-05T08:50:37.850Z,156.00
2018-10-05T08:51:37.871Z,156.00
2018-10-05T08:52:37.835Z,156.00
2018-10-05T08:53:37.838Z,156.00
2018-10-05T08:54:37.822Z,152.00
2018-10-05T08:55:37.816Z,156.00
2018-10-05T08:56:37.829Z,156.00
2018-10-05T08:57:37.808Z,152.00
2018-10-05T08:58:37.783Z,156.00
2018-10-05T08:59:37.784Z,156.00
2018-10-05T09:00:37.851Z,152.00
2018-10-05T09:01:37.773Z,152.00
2018-10-05T09:02:37.763Z,152.00
2018-10-05T09:03:37.765Z,152.00
2018-10-05T09:04:37.769Z,152.00
2018-10-05T09:05:37.787Z,148.00
2018-10-05T09:06:37.731Z,152.00
2018-10-05T09:07:37.735Z,148.00
2018-10-05T09:08:37.728Z,148.00
2018-10-05T09:09:37.720Z,144.00
2018-10-05T09:10:37.722Z,152.00
2018-10-05T09:11:37.706Z,148.00
2018-10-05T09:12:37.694Z,124.00
2018-10-05T09:13:37.684Z,148.00
2018-10-05T09:14:37.686Z,144.00
2018-10-05T09:15:37.675Z,144.00
2018-10-05T09:16:37.664Z,148.00
2018-10-05T09:17:37.730Z,144.00
2018-10-05T09:18:37.650Z,144.00
2018-10-05T09:19:37.655Z,144.00
2018-10-05T09:20:37.649Z,140.00
2018-10-05T09:21:37.629Z,140.00
2018-10-05T09:22:37.634Z,140.00
2018-10-05T09:23:37.631Z,140.00
2018-10-05T09:24:37.611Z,140.00
2018-10-05T09:25:37.606Z,132.00
2018-10-05T09:26:37.601Z,128.00
2018-10-05T09:27:37.596Z,132.00
2018-10-05T09:28:37.586Z,136.00
2018-10-05T09:29:37.580Z,120.00
2018-10-05T09:30:37.634Z,120.00
2018-10-05T09:31:37.571Z,128.00
2018-10-05T09:32:37.564Z,120.00
2018-10-05T09:33:37.553Z,128.00
2018-10-05T09:34:37.546Z,128.00
2018-10-05T09:35:37.540Z,128.00
2018-10-05T09:36:37.535Z,128.00
2018-10-05T09:37:37.577Z,128.00
2018-10-05T09:38:37.515Z,124.00
2018-10-05T09:39:37.527Z,124.00
2018-10-05T09:40:37.499Z,124.00
2018-10-05T09:41:37.505Z,120.00
2018-10-05T09:42:37.495Z,120.00
2018-10-05T09:43:37.520Z,120.00
2018-10-05T09:44:37.499Z,120.00
2018-10-05T09:45:37.479Z,124.00
2018-10-05T09:46:37.464Z,112.00
2018-10-05T09:47:37.455Z,112.00
2018-10-05T09:48:37.456Z,120.00
2018-10-05T09:49:37.446Z,116.00
2018-10-05T09:50:37.444Z,116.00
2018-10-05T09:51:37.446Z,120.00
2018-10-05T09:52:37.510Z,116.00
2018-10-05T09:53:37.415Z,112.00
2018-10-05T09:54:37.418Z,108.00
2018-10-05T09:55:37.409Z,108.00
2018-10-05T09:56:37.406Z,108.00
2018-10-05T09:57:37.397Z,108.00
2018-10-05T09:58:37.401Z,104.00
2018-10-05T09:59:37.467Z,80.00
2018-10-05T10:00:37.377Z,100.00
2018-10-05T10:01:37.374Z,104.00
2018-10-05T10:02:37.360Z,104.00
2018-10-05T10:03:37.476Z,104.00
2018-10-05T10:04:37.350Z,100.00
2018-10-05T10:05:37.341Z,100.00
2018-10-05T10:06:37.331Z,104.00
2018-10-05T10:07:37.324Z,104.00
2018-10-05T10:08:37.315Z,80.00
2018-10-05T10:09:37.312Z,72.00
2018-10-05T10:10:37.305Z,104.00
2018-10-05T10:11:37.297Z,100.00
2018-10-05T10:12:37.301Z,100.00
2018-10-05T10:13:37.317Z,96.00
2018-10-05T10:14:37.284Z,92.00
2018-10-05T10:15:37.274Z,88.00
2018-10-05T10:16:37.272Z,76.00
2018-10-05T10:17:37.268Z,92.00
2018-10-05T10:18:37.259Z,88.00
2018-10-05T10:19:37.261Z,88.00
2018-10-05T10:20:37.246Z,84.00
2018-10-05T10:21:37.241Z,84.00
2018-10-05T10:22:37.259Z,80.00
2018-10-05T10:23:37.226Z,76.00
2018-10-05T10:24:37.216Z,76.00
2018-10-05T10:25:37.204Z,76.00
2018-10-05T10:26:37.205Z,80.00
2018-10-05T10:27:37.264Z,72.00
2018-10-05T10:28:37.280Z,68.00
2018-10-05T10:29:37.179Z,76.00
2018-10-05T10:30:37.175Z,68.00
2018-10-05T10:31:37.172Z,72.00
2018-10-05T10:32:37.178Z,72.00
2018-10-05T10:33:37.218Z,72.00
2018-10-05T10:34:37.244Z,72.00
2018-10-05T10:35:37.142Z,64.00
2018-10-05T10:36:37.173Z,64.00
2018-10-05T10:37:37.137Z,64.00
2018-10-05T10:38:37.121Z,64.00
2018-10-05T10:39:37.110Z,64.00
2018-10-05T10:40:37.103Z,64.00
2018-10-05T10:41:37.108Z,64.00
2018-10-05T10:42:37.107Z,60.00
2018-10-05T10:43:37.082Z,56.00
2018-10-05T10:44:37.087Z,56.00
2018-10-05T10:45:37.078Z,60.00
2018-10-05T10:46:37.065Z,60.00
2018-10-05T10:47:37.062Z,56.00
2018-10-05T10:48:37.057Z,52.00
2018-10-05T10:49:37.043Z,52.00
2018-10-05T10:50:37.048Z,52.00
2018-10-05T10:51:37.032Z,60.00
2018-10-05T10:52:37.035Z,56.00
2018-10-05T10:53:37.031Z,56.00
2018-10-05T10:54:37.017Z,56.00
2018-10-05T10:55:37.002Z,48.00
2018-10-05T10:56:37.013Z,44.00
2018-10-05T10:57:36.996Z,44.00
2018-10-05T10:58:36.991Z,52.00
2018-10-05T10:59:36.984Z,44.00
2018-10-05T11:00:37.008Z,44.00
2018-10-05T11:01:36.975Z,48.00
2018-10-05T11:02:36.963Z,48.00
2018-10-05T11:03:36.961Z,48.00
2018-10-05T11:04:37.116Z,48.00
2018-10-05T11:05:36.941Z,44.00
2018-10-05T11:06:36.948Z,44.00
2018-10-05T11:07:36.943Z,44.00
2018-10-05T11:08:36.930Z,44.00
2018-10-05T11:09:36.947Z,40.00
2018-10-05T11:10:36.912Z,40.00
2018-10-05T11:11:36.908Z,40.00
2018-10-05T11:12:36.916Z,40.00
2018-10-05T11:13:36.891Z,40.00
2018-10-05T11:14:36.881Z,40.00
2018-10-05T11:15:36.873Z,40.00
2018-10-05T11:16:36.870Z,32.00
2018-10-05T11:17:36.868Z,40.00
2018-10-05T11:18:36.868Z,36.00
2018-10-05T11:19:36.858Z,40.00
2018-10-05T11:20:36.847Z,36.00
2018-10-05T11:21:36.836Z,36.00
2018-10-05T11:22:36.848Z,36.00
2018-10-05T11:23:36.832Z,36.00
2018-10-05T11:24:36.819Z,36.00
2018-10-05T11:25:36.808Z,36.00
2018-10-05T11:26:36.807Z,32.00
2018-10-05T11:27:36.800Z,32.00
2018-10-05T11:28:36.788Z,28.00
2018-10-05T11:29:36.837Z,32.00
2018-10-05T11:30:36.776Z,32.00
2018-10-05T11:31:36.775Z,32.00
2018-10-05T11:32:36.765Z,32.00
2018-10-05T11:33:36.764Z,32.00
2018-10-05T11:34:36.754Z,28.00
2018-10-05T11:35:36.749Z,28.00
2018-10-05T11:36:36.739Z,28.00
2018-10-05T11:37:36.728Z,28.00
2018-10-05T11:38:36.733Z,28.00
2018-10-05T11:39:36.726Z,28.00
2018-10-05T11:40:36.771Z,28.00
2018-10-05T11:41:36.714Z,28.00
2018-10-05T11:42:36.702Z,28.00
2018-10-05T11:43:36.693Z,28.00
2018-10-05T11:44:36.713Z,28.00
2018-10-05T11:45:36.683Z,28.00
2018-10-05T11:46:36.674Z,32.00
2018-10-05T11:47:36.668Z,24.00
2018-10-05T11:48:36.662Z,28.00
2018-10-05T11:49:36.648Z,28.00
2018-10-05T11:50:36.670Z,28.00
2018-10-05T11:51:36.641Z,28.00
2018-10-05T11:52:36.702Z,28.00
2018-10-05T11:53:36.628Z,28.00
2018-10-05T11:54:36.625Z,24.00
2018-10-05T11:55:36.609Z,24.00
2018-10-05T11:56:36.602Z,24.00
2018-10-05T11:57:36.599Z,28.00
2018-10-05T11:58:36.603Z,24.00
2018-10-05T11:59:36.601Z,24.00
2018-10-05T12:00:36.582Z,24.00
2018-10-05T12:01:36.573Z,24.00
2018-10-05T12:02:36.652Z,24.00
2018-10-05T12:03:36.562Z,24.00
2018-10-05T12:04:36.553Z,24.00
2018-10-05T12:05:36.543Z,24.00
2018-10-05T12:06:36.550Z,24.00
2018-10-05T12:07:36.540Z,24.00
2018-10-05T12:08:36.533Z,24.00
2018-10-05T12:09:36.519Z,24.00
2018-10-05T12:10:36.525Z,24.00
2018-10-05T12:11:36.512Z,20.00
2018-10-05T12:12:36.515Z,20.00
2018-10-05T12:13:36.552Z,24.00
2018-10-05T12:14:36.489Z,24.00
2018-10-05T12:15:36.475Z,20.00
2018-10-05T12:16:36.477Z,24.00
2018-10-05T12:17:36.479Z,20.00
2018-10-05T12:18:36.475Z,20.00
2018-10-05T12:19:36.453Z,20.00
2018-10-05T12:20:36.452Z,20.00
2018-10-05T12:21:36.439Z,20.00
2018-10-05T12:22:36.427Z,16.00
2018-10-05T12:23:36.434Z,20.00
2018-10-05T12:24:36.418Z,20.00
2018-10-05T12:25:36.418Z,20.00
2018-10-05T12:26:36.460Z,20.00
2018-10-05T12:27:36.404Z,20.00
2018-10-05T12:28:36.390Z,16.00
2018-10-05T12:29:36.392Z,20.00
2018-10-05T12:30:36.385Z,20.00
2018-10-05T12:31:36.374Z,16.00
2018-10-05T12:32:36.364Z,16.00
2018-10-05T12:33:36.354Z,16.00
2018-10-05T12:34:36.355Z,16.00
2018-10-05T12:35:36.343Z,16.00
2018-10-05T12:36:36.354Z,20.00
2018-10-05T12:37:36.329Z,20.00
2018-10-05T12:38:36.325Z,16.00
2018-10-05T12:39:36.325Z,16.00
2018-10-05T12:40:36.309Z,16.00
2018-10-05T12:41:36.304Z,16.00
2018-10-05T12:42:36.314Z,16.00
2018-10-05T12:43:36.292Z,16.00
2018-10-05T12:44:36.288Z,16.00
2018-10-05T12:45:36.276Z,16.00
2018-10-05T12:46:36.274Z,16.00
2018-10-05T12:47:36.298Z,16.00
2018-10-05T12:48:36.259Z,16.00
2018-10-05T12:49:36.248Z,16.00
2018-10-05T12:50:36.239Z,16.00
2018-10-05T12:51:36.244Z,16.00
2018-10-05T12:52:36.229Z,16.00
2018-10-05T12:53:36.228Z,12.00
2018-10-05T12:54:36.224Z,16.00
2018-10-05T12:55:36.208Z,16.00
2018-10-05T12:56:36.204Z,16.00
2018-10-05T12:57:36.197Z,16.00
2018-10-05T12:58:36.201Z,16.00
2018-10-05T12:59:36.199Z,16.00
2018-10-05T13:00:36.179Z,16.00
2018-10-05T13:01:36.168Z,12.00